createdAt,value
2023-05-01T00:00:50.400Z,23.94
2023-05-01T00:03:17.019Z,23.99
2023-05-01T00:05:43.674Z,24.10
2023-05-01T00:08:10.249Z,24.12
2023-05-01T00:10:36.768Z,24.00
2023-05-01T00:13:03.313Z,23.94
2023-05-01T00:15:29.803Z,23.97
2023-05-01T00:17:56.394Z,24.08
2023-05-01T00:20:22.966Z,23.94
2023-05-01T00:22:49.450Z,23.90
2023-05-01T00:25:16.091Z,23.98
2023-05-01T00:27:42.616Z,24.08
2023-05-01T00:30:09.119Z,24.18
2023-05-01T00:32:35.616Z,24.10
2023-05-01T00:35:02.083Z,24.14
2023-05-01T00:37:28.615Z,24.17
2023-05-01T00:39:55.232Z,24.07
2023-05-01T00:42:21.908Z,24.00
2023-05-01T00:44:48.430Z,23.97
2023-05-01T00:47:14.991Z,24.05
2023-05-01T00:49:41.593Z,24.07
2023-05-01T00:52:08.154Z,24.01
2023-05-01T00:54:34.665Z,24.14
2023-05-01T00:57:01.239Z,24.05
2023-05-01T00:59:27.774Z,24.19
2023-05-01T01:01:56.356Z,24.24
2023-05-01T01:04:23.301Z,24.11
2023-05-01T01:06:49.855Z,24.15
2023-05-01T01:09:16.444Z,24.03
2023-05-01T01:11:42.971Z,24.00
2023-05-01T01:14:09.491Z,23.97
2023-05-01T01:16:36.123Z,23.89
2023-05-01T01:19:02.724Z,23.89
2023-05-01T01:21:29.239Z,23.97
2023-05-01T01:23:55.736Z,23.92
2023-05-01T01:26:22.265Z,23.95
2023-05-01T01:28:48.735Z,23.89
2023-05-01T01:31:15.566Z,23.95
2023-05-01T01:33:42.139Z,23.99
2023-05-01T01:36:08.642Z,23.93
2023-05-01T01:38:35.109Z,23.99
2023-05-01T01:41:01.725Z,23.99
2023-05-01T01:43:28.279Z,23.98
2023-05-01T01:45:54.789Z,23.91
2023-05-01T01:48:21.361Z,23.86
2023-05-01T01:50:47.879Z,23.88
2023-05-01T01:53:14.343Z,23.84
2023-05-01T01:55:40.776Z,23.83
2023-05-01T01:58:07.344Z,23.85
2023-05-01T02:00:33.842Z,23.78
2023-05-01T02:03:00.445Z,23.73
2023-05-01T02:05:27.201Z,23.76
2023-05-01T02:07:53.674Z,23.84
2023-05-01T02:10:20.183Z,23.88
2023-05-01T02:12:46.615Z,23.80
2023-05-01T02:15:17.471Z,23.80
2023-05-01T02:17:43.981Z,23.84
2023-05-01T02:20:10.524Z,23.87
2023-05-01T02:22:37.045Z,23.97
2023-05-01T02:25:03.512Z,24.00
2023-05-01T02:27:30.010Z,24.07
2023-05-01T02:29:56.799Z,23.96
2023-05-01T02:32:23.558Z,23.92
2023-05-01T02:34:50.405Z,23.95
2023-05-01T02:37:17.269Z,23.92
2023-05-01T02:39:43.769Z,23.81
2023-05-01T02:42:10.318Z,23.90
2023-05-01T02:44:36.822Z,23.85
2023-05-01T02:47:03.447Z,23.90
2023-05-01T02:49:30.016Z,23.94
2023-05-01T02:51:56.572Z,23.96
2023-05-01T02:54:23.065Z,23.83
2023-05-01T02:56:49.545Z,23.92
2023-05-01T02:59:16.075Z,23.90
2023-05-01T03:01:42.732Z,23.91
2023-05-01T03:04:09.447Z,23.92
2023-05-01T03:06:36.112Z,23.93
2023-05-01T03:09:02.710Z,23.95
2023-05-01T03:11:30.600Z,23.95
2023-05-01T03:13:57.087Z,23.90
2023-05-01T03:16:23.628Z,24.01
2023-05-01T03:18:50.176Z,24.00
2023-05-01T03:21:16.575Z,23.94
2023-05-01T03:23:43.168Z,23.91
2023-05-01T03:26:09.675Z,23.96
2023-05-01T03:28:36.166Z,24.05
2023-05-01T03:31:02.767Z,24.04
2023-05-01T03:33:29.211Z,24.01
2023-05-01T03:35:55.740Z,23.89
2023-05-01T03:38:22.225Z,23.80
2023-05-01T03:40:48.737Z,23.85
2023-05-01T03:43:15.244Z,24.04
2023-05-01T03:45:44.230Z,23.98
2023-05-01T03:48:11.431Z,24.04
2023-05-01T03:50:38.049Z,24.04
2023-05-01T03:53:04.544Z,23.93
2023-05-01T03:55:31.062Z,23.99
2023-05-01T03:57:57.662Z,23.98
2023-05-01T04:00:24.176Z,23.93
2023-05-01T04:02:51.059Z,23.81
2023-05-01T04:05:17.871Z,23.79
2023-05-01T04:07:44.449Z,23.84
2023-05-01T04:10:10.917Z,23.84
2023-05-01T04:12:37.387Z,23.69
2023-05-01T04:15:03.793Z,23.82
2023-05-01T04:17:30.338Z,23.81
2023-05-01T04:19:57.113Z,23.70
2023-05-01T04:22:23.977Z,23.64
2023-05-01T04:24:50.473Z,23.61
2023-05-01T04:27:16.999Z,23.48
2023-05-01T04:29:43.507Z,23.49
2023-05-01T04:32:10.077Z,23.42
2023-05-01T04:34:36.703Z,23.45
2023-05-01T04:37:03.187Z,23.51
2023-05-01T04:39:29.774Z,23.49
2023-05-01T04:41:56.348Z,23.51
2023-05-01T04:44:22.899Z,23.51
2023-05-01T04:46:49.542Z,23.49
2023-05-01T04:49:16.100Z,23.53
2023-05-01T04:51:42.643Z,23.57
2023-05-01T04:54:09.187Z,23.62
2023-05-01T04:56:35.836Z,23.54
2023-05-01T04:59:02.240Z,23.70
2023-05-01T05:01:28.761Z,23.68
2023-05-01T05:03:55.421Z,23.63
2023-05-01T05:06:23.411Z,23.63
2023-05-01T05:08:49.932Z,23.49
2023-05-01T05:11:17.545Z,23.38
2023-05-01T05:13:44.041Z,23.44
2023-05-01T05:16:10.531Z,23.52
2023-05-01T05:18:37.078Z,23.30
2023-05-01T05:21:03.536Z,23.49
2023-05-01T05:23:30.012Z,23.53
2023-05-01T05:25:56.559Z,23.46
2023-05-01T05:28:23.064Z,23.44
2023-05-01T05:30:49.616Z,23.42
2023-05-01T05:33:16.036Z,23.55
2023-05-01T05:35:42.611Z,23.49
2023-05-01T05:38:09.111Z,23.33
2023-05-01T05:40:35.592Z,23.10
2023-05-01T05:43:02.106Z,23.15
2023-05-01T05:45:28.672Z,23.29
2023-05-01T05:47:55.234Z,23.14
2023-05-01T05:50:21.822Z,23.28
2023-05-01T05:52:48.315Z,23.60
2023-05-01T05:55:14.841Z,23.77
2023-05-01T05:57:41.334Z,23.81
2023-05-01T06:00:07.846Z,24.00
2023-05-01T06:02:34.496Z,24.04
2023-05-01T06:05:01.135Z,23.85
2023-05-01T06:07:27.700Z,23.48
2023-05-01T06:09:54.903Z,23.37
2023-05-01T06:12:21.634Z,23.43
2023-05-01T06:14:49.016Z,23.50
2023-05-01T06:17:15.571Z,23.62
2023-05-01T06:19:42.122Z,23.68
2023-05-01T06:22:08.567Z,23.76
2023-05-01T06:24:35.043Z,23.76
2023-05-01T06:27:01.736Z,23.69
2023-05-01T06:29:28.286Z,23.76
2023-05-01T06:31:54.832Z,23.77
2023-05-01T06:34:21.400Z,23.74
2023-05-01T06:36:47.966Z,23.78
2023-05-01T06:39:14.497Z,23.67
2023-05-01T06:41:40.982Z,23.64
2023-05-01T06:44:07.569Z,23.69
2023-05-01T06:46:34.094Z,23.98
2023-05-01T06:49:00.753Z,23.94
2023-05-01T06:51:27.333Z,23.96
2023-05-01T06:53:53.904Z,24.06
2023-05-01T06:56:20.431Z,24.07
2023-05-01T06:58:46.921Z,24.17
2023-05-01T07:01:13.435Z,24.13
2023-05-01T07:03:40.062Z,24.07
2023-05-01T07:06:06.618Z,24.09
2023-05-01T07:08:33.124Z,24.10
2023-05-01T07:10:59.672Z,23.92
2023-05-01T07:13:28.631Z,24.09
2023-05-01T07:15:55.329Z,24.03
2023-05-01T07:18:22.006Z,24.11
2023-05-01T07:20:48.450Z,24.35
2023-05-01T07:23:14.979Z,24.23
2023-05-01T07:25:41.462Z,23.97
2023-05-01T07:28:07.992Z,23.52
2023-05-01T07:30:34.432Z,23.57
2023-05-01T07:33:01.086Z,23.46
2023-05-01T07:35:27.651Z,23.45
2023-05-01T07:37:54.196Z,23.46
2023-05-01T07:40:20.653Z,23.51
2023-05-01T07:42:47.125Z,23.36
2023-05-01T07:45:13.604Z,23.09
2023-05-01T07:47:40.051Z,22.85
2023-05-01T07:50:07.675Z,23.04
2023-05-01T07:52:34.101Z,23.34
2023-05-01T07:55:00.564Z,23.74
2023-05-01T07:57:26.996Z,23.99
2023-05-01T07:59:53.837Z,23.93
2023-05-01T08:02:20.461Z,23.87
2023-05-01T08:04:46.986Z,23.87
2023-05-01T08:07:13.420Z,23.96
2023-05-01T08:09:39.894Z,24.18
2023-05-01T08:12:06.387Z,24.15
2023-05-01T08:14:32.894Z,24.25
2023-05-01T08:16:59.349Z,24.06
2023-05-01T08:19:25.740Z,24.04
2023-05-01T08:21:52.239Z,23.95
2023-05-01T08:24:18.815Z,23.94
2023-05-01T08:26:45.284Z,24.05
2023-05-01T08:29:11.796Z,24.04
2023-05-01T08:31:38.303Z,24.16
2023-05-01T08:34:04.866Z,24.04
2023-05-01T08:36:31.390Z,23.94
2023-05-01T08:38:57.899Z,23.83
2023-05-01T08:41:24.332Z,23.63
2023-05-01T08:43:50.808Z,23.49
2023-05-01T08:46:17.379Z,23.52
2023-05-01T08:48:43.839Z,23.44
2023-05-01T08:51:10.330Z,23.68
2023-05-01T08:53:36.871Z,23.62
2023-05-01T08:56:03.373Z,23.67
2023-05-01T08:58:29.916Z,23.76
2023-05-01T09:00:56.477Z,23.84
2023-05-01T09:03:23.029Z,23.80
2023-05-01T09:05:49.690Z,23.76
2023-05-01T09:08:16.257Z,23.70
2023-05-01T09:10:42.726Z,23.83
2023-05-01T09:13:09.132Z,23.85
2023-05-01T09:15:35.960Z,23.76
2023-05-01T09:18:03.776Z,23.74
2023-05-01T09:20:30.443Z,23.73
2023-05-01T09:22:57.207Z,23.78
2023-05-01T09:25:23.725Z,23.75
2023-05-01T09:27:50.145Z,23.69
2023-05-01T09:30:18.042Z,23.60
2023-05-01T09:32:44.516Z,23.57
2023-05-01T09:35:11.013Z,23.62
2023-05-01T09:37:37.461Z,23.61
2023-05-01T09:40:04.005Z,23.63
2023-05-01T09:42:30.557Z,23.66
2023-05-01T09:44:57.021Z,23.60
2023-05-01T09:47:23.485Z,23.63
2023-05-01T09:49:49.994Z,23.47
2023-05-01T09:52:16.448Z,23.51
2023-05-01T09:54:42.937Z,23.48
2023-05-01T09:57:09.453Z,23.48
2023-05-01T09:59:35.964Z,23.53
2023-05-01T10:02:02.513Z,23.51
2023-05-01T10:04:29.091Z,23.46
2023-05-01T10:06:55.777Z,23.28
2023-05-01T10:09:22.337Z,23.25
2023-05-01T10:11:48.773Z,23.33
2023-05-01T10:14:15.220Z,23.17
2023-05-01T10:16:41.893Z,22.91
2023-05-01T10:19:08.470Z,23.33
2023-05-01T10:21:34.969Z,23.57
2023-05-01T10:24:01.433Z,23.47
2023-05-01T10:26:27.909Z,23.77
2023-05-01T10:28:54.525Z,24.07
2023-05-01T10:31:21.286Z,23.80
2023-05-01T10:33:47.933Z,23.90
2023-05-01T10:36:14.460Z,23.55
2023-05-01T10:38:40.985Z,23.57
2023-05-01T10:41:07.524Z,23.64
2023-05-01T10:43:34.072Z,23.74
2023-05-01T10:46:00.560Z,23.93
2023-05-01T10:48:27.117Z,23.89
2023-05-01T10:50:53.675Z,23.90
2023-05-01T10:53:20.184Z,23.92
2023-05-01T10:55:46.718Z,24.06
2023-05-01T10:58:13.274Z,24.07
2023-05-01T11:00:39.753Z,24.05
2023-05-01T11:03:06.342Z,23.98
2023-05-01T11:05:38.484Z,23.95
2023-05-01T11:08:05.330Z,24.10
2023-05-01T11:10:31.838Z,24.01
2023-05-01T11:12:58.785Z,23.96
2023-05-01T11:15:25.227Z,24.07
2023-05-01T11:17:51.767Z,24.07
2023-05-01T11:20:18.302Z,24.23
2023-05-01T11:22:44.786Z,24.17
2023-05-01T11:25:11.314Z,24.20
2023-05-01T11:27:37.799Z,24.22
2023-05-01T11:30:04.242Z,24.31
2023-05-01T11:32:31.218Z,24.21
2023-05-01T11:34:58.086Z,24.12
2023-05-01T11:37:24.772Z,24.24
2023-05-01T11:39:51.211Z,24.25
2023-05-01T11:42:17.812Z,24.21
2023-05-01T11:44:44.275Z,24.10
2023-05-01T11:47:10.797Z,24.08
2023-05-01T11:49:37.299Z,24.03
2023-05-01T11:52:03.817Z,24.48
2023-05-01T11:54:30.371Z,24.34
2023-05-01T11:56:56.787Z,24.35
2023-05-01T11:59:23.214Z,24.39
2023-05-01T12:01:49.745Z,24.40
2023-05-01T12:04:16.412Z,24.50
2023-05-01T12:06:43.122Z,24.59
2023-05-01T12:09:09.726Z,24.63
2023-05-01T12:11:36.246Z,24.46
2023-05-01T12:14:02.726Z,24.51
2023-05-01T12:16:29.269Z,24.63
2023-05-01T12:18:55.802Z,24.57
2023-05-01T12:21:22.323Z,24.59
2023-05-01T12:23:48.736Z,24.53
2023-05-01T12:26:15.257Z,24.51
2023-05-01T12:28:41.783Z,24.67
2023-05-01T12:31:08.327Z,24.73
2023-05-01T12:33:34.830Z,24.78
2023-05-01T12:36:01.268Z,24.85
2023-05-01T12:38:27.718Z,24.63
2023-05-01T12:40:54.186Z,24.66
2023-05-01T12:43:20.753Z,24.62
2023-05-01T12:45:47.261Z,24.58
2023-05-01T12:48:13.862Z,24.48
2023-05-01T12:50:40.348Z,24.38
2023-05-01T12:53:06.849Z,24.39
2023-05-01T12:55:35.464Z,24.34
2023-05-01T12:58:01.991Z,24.25
2023-05-01T13:00:28.432Z,24.30
2023-05-01T13:02:54.953Z,24.43
2023-05-01T13:05:21.543Z,24.35
2023-05-01T13:07:48.059Z,24.58
2023-05-01T13:10:14.549Z,24.48
2023-05-01T13:12:41.036Z,24.57
2023-05-01T13:15:07.468Z,24.75
2023-05-01T13:17:33.988Z,24.60
2023-05-01T13:20:00.894Z,24.50
2023-05-01T13:22:27.800Z,24.41
2023-05-01T13:24:54.304Z,24.52
2023-05-01T13:27:20.821Z,24.55
2023-05-01T13:29:47.256Z,24.47
2023-05-01T13:32:13.881Z,24.38
2023-05-01T13:34:40.371Z,24.51
2023-05-01T13:37:06.967Z,24.37
2023-05-01T13:39:33.441Z,24.37
2023-05-01T13:41:59.917Z,24.47
2023-05-01T13:44:26.384Z,24.51
2023-05-01T13:46:52.875Z,24.33
2023-05-01T13:49:19.385Z,24.46
2023-05-01T13:51:45.885Z,24.45
2023-05-01T13:54:12.362Z,24.48
2023-05-01T13:56:38.859Z,24.40
2023-05-01T13:59:05.376Z,24.36
2023-05-01T14:01:31.917Z,24.40
2023-05-01T14:03:58.541Z,24.42
2023-05-01T14:06:25.134Z,24.51
2023-05-01T14:08:51.850Z,24.40
2023-05-01T14:11:18.376Z,24.29
2023-05-01T14:13:44.758Z,24.45
2023-05-01T14:16:11.282Z,24.48
2023-05-01T14:18:37.917Z,24.60
2023-05-01T14:21:04.617Z,24.79
2023-05-01T14:23:31.073Z,24.93
2023-05-01T14:25:57.626Z,25.10
2023-05-01T14:28:24.167Z,25.24
2023-05-01T14:30:50.700Z,25.46
2023-05-01T14:33:18.032Z,25.44
2023-05-01T14:35:45.075Z,25.54
2023-05-01T14:38:13.322Z,25.49
2023-05-01T14:40:40.293Z,25.65
2023-05-01T14:43:08.507Z,25.71
2023-05-01T14:45:35.336Z,25.78
2023-05-01T14:48:03.785Z,25.95
2023-05-01T14:50:30.744Z,25.82
2023-05-01T14:52:57.830Z,25.92
2023-05-01T14:55:24.653Z,25.80
2023-05-01T14:57:51.573Z,25.75
2023-05-01T15:00:18.702Z,25.79
2023-05-01T15:02:45.683Z,25.73
2023-05-01T15:05:13.193Z,25.62
2023-05-01T15:07:40.599Z,25.60
2023-05-01T15:10:08.427Z,25.58
2023-05-01T15:12:36.002Z,25.63
2023-05-01T15:15:02.569Z,25.65
2023-05-01T15:17:30.407Z,25.53
2023-05-01T15:19:57.552Z,25.31
2023-05-01T15:22:24.074Z,25.24
2023-05-01T15:24:50.572Z,25.23
2023-05-01T15:27:17.075Z,25.22
2023-05-01T15:29:43.571Z,25.22
2023-05-01T15:32:12.336Z,25.32
2023-05-01T15:34:39.318Z,25.28
2023-05-01T15:37:05.908Z,25.21
2023-05-01T15:39:32.445Z,25.19
2023-05-01T15:41:58.906Z,25.38
2023-05-01T15:44:25.322Z,25.28
2023-05-01T15:46:51.789Z,25.19
2023-05-01T15:49:18.312Z,25.13
2023-05-01T15:51:44.882Z,25.16
2023-05-01T15:54:11.407Z,25.08
2023-05-01T15:56:37.931Z,25.04
2023-05-01T15:59:04.407Z,25.02
2023-05-01T16:01:30.971Z,24.91
2023-05-01T16:03:57.559Z,24.90
2023-05-01T16:06:24.193Z,24.89
2023-05-01T16:08:50.651Z,24.93
2023-05-01T16:11:17.246Z,24.91
2023-05-01T16:13:43.743Z,24.89
2023-05-01T16:16:10.350Z,24.90
2023-05-01T16:18:36.862Z,24.86
2023-05-01T16:21:03.403Z,24.83
2023-05-01T16:23:29.849Z,24.83
2023-05-01T16:25:56.318Z,24.81
2023-05-01T16:28:22.878Z,24.87
2023-05-01T16:30:49.500Z,24.86
2023-05-01T16:33:18.243Z,24.91
2023-05-01T16:35:45.440Z,24.93
2023-05-01T16:38:11.939Z,24.79
2023-05-01T16:40:38.388Z,24.54
2023-05-01T16:43:04.880Z,24.67
2023-05-01T16:45:31.392Z,24.71
2023-05-01T16:47:57.971Z,24.72
2023-05-01T16:50:24.508Z,24.64
2023-05-01T16:52:51.038Z,24.75
2023-05-01T16:55:17.494Z,24.72
2023-05-01T16:57:44.604Z,24.61
2023-05-01T17:00:11.232Z,24.72
2023-05-01T17:02:37.800Z,24.59
2023-05-01T17:05:04.330Z,24.61
2023-05-01T17:07:30.803Z,24.59
2023-05-01T17:09:57.623Z,24.58
2023-05-01T17:12:24.534Z,24.51
2023-05-01T17:14:51.120Z,24.39
2023-05-01T17:17:17.589Z,24.35
2023-05-01T17:19:44.042Z,24.37
2023-05-01T17:22:10.484Z,24.45
2023-05-01T17:24:36.922Z,24.44
2023-05-01T17:27:03.357Z,24.32
2023-05-01T17:29:29.888Z,24.18
2023-05-01T17:31:56.525Z,24.17
2023-05-01T17:34:23.137Z,24.16
2023-05-01T17:36:49.695Z,24.20
2023-05-01T17:39:16.227Z,24.22
2023-05-01T17:41:42.670Z,24.27
2023-05-01T17:44:09.182Z,24.32
2023-05-01T17:46:35.726Z,24.26
2023-05-01T17:49:02.184Z,24.21
2023-05-01T17:51:28.806Z,24.33
2023-05-01T17:53:55.252Z,24.43
2023-05-01T17:56:21.785Z,24.44
2023-05-01T17:58:48.282Z,24.31
2023-05-01T18:01:14.712Z,24.32
2023-05-01T18:03:41.436Z,24.41
2023-05-01T18:06:08.051Z,24.39
2023-05-01T18:08:34.566Z,24.30
2023-05-01T18:11:01.120Z,24.27
2023-05-01T18:13:27.546Z,24.17
2023-05-01T18:15:54.051Z,24.12
2023-05-01T18:18:20.571Z,24.29
2023-05-01T18:20:47.112Z,24.17
2023-05-01T18:23:13.574Z,24.22
2023-05-01T18:25:40.105Z,24.30
2023-05-01T18:28:06.670Z,24.27
2023-05-01T18:30:33.114Z,24.24
2023-05-01T18:32:59.637Z,24.18
2023-05-01T18:35:26.115Z,24.25
2023-05-01T18:37:52.616Z,24.23
2023-05-01T18:40:19.083Z,24.20
2023-05-01T18:43:01.009Z,24.20
2023-05-01T18:45:27.520Z,24.16
2023-05-01T18:47:54.010Z,24.12
2023-05-01T18:50:20.525Z,23.93
2023-05-01T18:52:46.986Z,24.02
2023-05-01T18:55:13.508Z,24.12
2023-05-01T18:57:40.026Z,24.10
2023-05-01T19:00:06.573Z,24.04
2023-05-01T19:02:33.132Z,24.03
2023-05-01T19:04:59.612Z,24.06
2023-05-01T19:07:26.099Z,24.14
2023-05-01T19:09:52.735Z,24.01
2023-05-01T19:12:19.263Z,24.00
2023-05-01T19:14:45.759Z,23.90
2023-05-01T19:17:12.291Z,24.00
2023-05-01T19:19:38.833Z,24.05
2023-05-01T19:22:05.340Z,23.96
2023-05-01T19:24:31.819Z,23.94
2023-05-01T19:26:58.364Z,24.09
2023-05-01T19:29:24.877Z,24.00
2023-05-01T19:31:51.425Z,23.98
2023-05-01T19:34:17.961Z,23.96
2023-05-01T19:36:44.415Z,23.93
2023-05-01T19:39:10.923Z,23.90
2023-05-01T19:41:37.453Z,24.08
2023-05-01T19:44:04.076Z,24.04
2023-05-01T19:46:33.179Z,23.95
2023-05-01T19:48:59.928Z,23.87
2023-05-01T19:51:26.463Z,23.83
2023-05-01T19:53:53.010Z,23.89
2023-05-01T19:56:19.511Z,23.83
2023-05-01T19:58:46.055Z,23.89
2023-05-01T20:01:12.615Z,23.92
2023-05-01T20:03:39.111Z,24.04
2023-05-01T20:06:05.674Z,23.86
2023-05-01T20:08:32.146Z,23.85
2023-05-01T20:10:58.638Z,23.84
2023-05-01T20:13:25.040Z,23.84
2023-05-01T20:15:51.559Z,23.84
2023-05-01T20:18:18.094Z,23.83
2023-05-01T20:20:44.586Z,23.78
2023-05-01T20:23:11.156Z,23.85
2023-05-01T20:25:37.693Z,23.86
2023-05-01T20:28:04.260Z,23.85
2023-05-01T20:30:30.815Z,23.92
2023-05-01T20:32:57.362Z,23.89
2023-05-01T20:35:23.965Z,24.02
2023-05-01T20:37:50.417Z,24.03
2023-05-01T20:40:16.919Z,24.02
2023-05-01T20:42:43.409Z,23.95
2023-05-01T20:45:09.853Z,23.96
2023-05-01T20:47:36.371Z,23.89
2023-05-01T20:50:02.913Z,24.00
2023-05-01T20:52:29.494Z,24.01
2023-05-01T20:54:56.062Z,23.98
2023-05-01T20:57:22.612Z,23.86
2023-05-01T20:59:49.051Z,24.02
2023-05-01T21:02:15.583Z,24.01
2023-05-01T21:04:42.134Z,24.01
2023-05-01T21:07:08.581Z,23.99
2023-05-01T21:09:35.125Z,23.97
2023-05-01T21:12:01.648Z,24.02
2023-05-01T21:14:28.279Z,23.88
2023-05-01T21:16:54.854Z,23.93
2023-05-01T21:19:21.368Z,23.86
2023-05-01T21:21:47.793Z,23.87
2023-05-01T21:24:14.358Z,23.88
2023-05-01T21:26:40.914Z,23.93
2023-05-01T21:29:07.481Z,23.88
2023-05-01T21:31:33.999Z,23.95
2023-05-01T21:34:00.612Z,24.02
2023-05-01T21:36:27.211Z,24.00
2023-05-01T21:38:53.820Z,23.97
2023-05-01T21:41:20.399Z,23.99
2023-05-01T21:43:47.006Z,23.92
2023-05-01T21:46:13.566Z,23.90
2023-05-01T21:48:40.095Z,23.94
2023-05-01T21:51:06.707Z,23.92
2023-05-01T21:53:33.243Z,23.97
2023-05-01T21:55:59.791Z,23.92
2023-05-01T21:58:26.342Z,23.95
2023-05-01T22:00:52.933Z,23.96
2023-05-01T22:03:19.576Z,23.90
2023-05-01T22:05:46.197Z,23.86
2023-05-01T22:08:12.824Z,23.89
2023-05-01T22:10:39.430Z,23.81
2023-05-01T22:13:05.892Z,23.90
2023-05-01T22:15:32.403Z,23.90
2023-05-01T22:17:59.025Z,23.91
2023-05-01T22:20:25.631Z,23.82
2023-05-01T22:22:52.185Z,23.82
2023-05-01T22:25:18.680Z,23.83
2023-05-01T22:27:45.184Z,23.84
2023-05-01T22:30:11.731Z,23.88
2023-05-01T22:32:38.360Z,23.81
2023-05-01T22:35:04.976Z,23.87
2023-05-01T22:37:31.533Z,23.91
2023-05-01T22:39:58.270Z,23.93
2023-05-01T22:42:24.853Z,23.89
2023-05-01T22:44:51.418Z,23.87
2023-05-01T22:47:17.926Z,23.90
2023-05-01T22:49:44.518Z,23.85
2023-05-01T22:52:11.016Z,23.90
2023-05-01T22:54:37.566Z,23.92
2023-05-01T22:57:04.112Z,23.98
2023-05-01T22:59:30.597Z,23.92
2023-05-01T23:01:57.138Z,23.92
2023-05-01T23:04:23.817Z,23.92
2023-05-01T23:06:50.512Z,23.89
2023-05-01T23:09:17.004Z,23.94
2023-05-01T23:11:43.496Z,23.94
2023-05-01T23:14:10.076Z,23.90
2023-05-01T23:16:36.719Z,24.00
2023-05-01T23:19:03.280Z,24.07
2023-05-01T23:21:29.771Z,23.93
2023-05-01T23:23:56.248Z,23.81
2023-05-01T23:26:22.741Z,23.94
2023-05-01T23:28:49.218Z,23.87
2023-05-01T23:31:15.881Z,23.84
2023-05-01T23:33:42.422Z,23.89
2023-05-01T23:36:08.919Z,23.85
2023-05-01T23:38:35.440Z,23.94
2023-05-01T23:41:01.975Z,23.88
2023-05-01T23:43:28.524Z,23.93
2023-05-01T23:45:55.056Z,23.86
2023-05-01T23:48:21.585Z,23.83
2023-05-01T23:50:48.103Z,23.91
2023-05-01T23:53:14.599Z,23.86
2023-05-01T23:55:41.030Z,23.83
2023-05-01T23:58:07.431Z,23.93
